createdAt,value
2018-02-17T00:00:11.174Z,79.50
2018-02-17T00:02:39.450Z,79.30
2018-02-17T00:05:07.758Z,79.30
2018-02-17T00:07:35.338Z,78.70
2018-02-17T00:10:02.885Z,77.90
2018-02-17T00:12:30.392Z,78.60
2018-02-17T00:14:57.923Z,79.30
2018-02-17T00:17:25.457Z,79.00
2018-02-17T00:19:53.010Z,79.40
2018-02-17T00:22:20.534Z,78.50
2018-02-17T00:24:48.026Z,79.50
2018-02-17T00:27:15.594Z,79.50
2018-02-17T00:29:43.862Z,79.30
2018-02-17T00:32:12.174Z,79.00
2018-02-17T00:34:39.714Z,79.00
2018-02-17T00:37:07.232Z,79.60
2018-02-17T00:39:34.730Z,79.50
2018-02-17T00:42:03.014Z,80.00
2018-02-17T00:44:30.539Z,79.90
2018-02-17T00:46:58.078Z,80.40
2018-02-17T00:49:25.591Z,80.10
2018-02-17T00:51:53.893Z,80.30
2018-02-17T00:54:21.413Z,80.30
2018-02-17T00:56:48.917Z,79.90
2018-02-17T00:59:16.459Z,80.50
2018-02-17T01:01:44.005Z,80.10
2018-02-17T01:04:12.298Z,80.00
2018-02-17T01:09:13.717Z,80.10
2018-02-17T01:11:41.246Z,80.60
2018-02-17T01:14:08.778Z,80.30
2018-02-17T01:16:37.086Z,79.80
2018-02-17T01:19:04.601Z,79.80
2018-02-17T01:21:32.891Z,80.80
2018-02-17T01:24:01.149Z,79.40
2018-02-17T01:26:28.682Z,79.40
2018-02-17T01:28:56.179Z,80.00
2018-02-17T01:31:24.469Z,80.60
2018-02-17T01:33:52.772Z,80.90
2018-02-17T01:36:20.307Z,80.80
2018-02-17T01:38:47.866Z,81.00
2018-02-17T01:41:16.140Z,80.70
2018-02-17T01:43:44.412Z,80.00
2018-02-17T01:46:12.673Z,80.50
2018-02-17T01:48:40.214Z,80.50
2018-02-17T01:51:07.731Z,80.40
2018-02-17T01:53:35.260Z,80.20
2018-02-17T01:56:03.568Z,81.20
2018-02-17T01:58:31.090Z,81.10
2018-02-17T02:00:58.598Z,80.90
2018-02-17T02:03:26.115Z,80.80
2018-02-17T02:05:53.734Z,80.10
2018-02-17T02:08:21.242Z,80.40
2018-02-17T02:10:49.518Z,80.50
2018-02-17T02:13:17.039Z,80.50
2018-02-17T02:15:44.578Z,80.80
2018-02-17T02:18:12.112Z,80.80
2018-02-17T02:20:39.604Z,81.30
2018-02-17T02:23:07.109Z,81.10
2018-02-17T02:25:34.628Z,80.70
2018-02-17T02:28:02.135Z,81.10
2018-02-17T02:30:30.431Z,81.00
2018-02-17T02:32:57.979Z,81.00
2018-02-17T02:35:26.272Z,80.80
2018-02-17T02:37:53.822Z,80.70
2018-02-17T02:40:22.100Z,81.20
2018-02-17T02:42:49.642Z,81.20
2018-02-17T02:45:17.962Z,81.20
2018-02-17T02:47:45.494Z,81.00
2018-02-17T02:50:13.033Z,79.80
2018-02-17T02:52:40.572Z,80.30
2018-02-17T02:55:08.118Z,80.40
2018-02-17T02:57:35.638Z,80.80
2018-02-17T03:00:03.160Z,80.60
2018-02-17T03:02:30.702Z,80.50
2018-02-17T03:04:58.221Z,80.40
2018-02-17T03:07:25.757Z,80.70
2018-02-17T03:09:54.039Z,80.80
2018-02-17T03:12:22.315Z,81.10
2018-02-17T03:14:49.841Z,80.90
2018-02-17T03:17:17.359Z,81.00
2018-02-17T03:19:44.899Z,81.10
2018-02-17T03:22:13.179Z,80.80
2018-02-17T03:24:40.706Z,80.80
2018-02-17T03:27:08.221Z,80.80
2018-02-17T03:29:35.717Z,81.40
2018-02-17T03:32:03.242Z,81.90
2018-02-17T03:34:30.776Z,82.10
2018-02-17T03:36:58.309Z,81.80
2018-02-17T03:39:25.833Z,82.00
2018-02-17T03:41:53.356Z,82.40
2018-02-17T03:44:20.873Z,82.40
2018-02-17T03:46:48.386Z,82.50
2018-02-17T03:49:15.914Z,82.70
2018-02-17T03:51:44.159Z,82.40
2018-02-17T03:54:11.754Z,82.40
2018-02-17T03:56:40.041Z,83.00
2018-02-17T03:59:07.575Z,83.00
2018-02-17T04:01:35.866Z,82.90
2018-02-17T04:04:04.158Z,83.20
2018-02-17T04:06:31.670Z,83.20
2018-02-17T04:08:59.203Z,83.50
2018-02-17T04:11:26.738Z,83.50
2018-02-17T04:13:54.236Z,82.60
2018-02-17T04:16:21.752Z,82.80
2018-02-17T04:18:49.295Z,83.30
2018-02-17T04:21:17.602Z,84.00
2018-02-17T04:23:45.115Z,84.00
2018-02-17T04:26:13.402Z,82.90
2018-02-17T04:28:41.701Z,82.70
2018-02-17T04:31:09.413Z,82.70
2018-02-17T04:33:36.950Z,82.30
2018-02-17T04:36:04.472Z,81.90
2018-02-17T04:38:31.987Z,82.00
2018-02-17T04:41:05.132Z,82.20
2018-02-17T04:43:32.666Z,82.10
2018-02-17T04:46:03.150Z,82.10
2018-02-17T04:48:33.138Z,82.20
2018-02-17T04:51:04.118Z,81.40
2018-02-17T04:53:42.348Z,82.10
2018-02-17T04:56:16.236Z,83.10
2018-02-17T04:58:53.706Z,82.70
2018-02-17T05:01:21.764Z,82.60
2018-02-17T05:06:53.335Z,83.70
2018-02-17T05:09:20.834Z,83.90
2018-02-17T05:11:48.337Z,84.20
2018-02-17T05:14:21.392Z,83.90
2018-02-17T05:16:50.506Z,84.10
2018-02-17T05:19:20.554Z,84.60
2018-02-17T05:21:52.738Z,84.60
2018-02-17T05:24:23.842Z,84.60
2018-02-17T05:26:53.813Z,84.00
2018-02-17T05:29:24.928Z,84.30
2018-02-17T05:31:52.914Z,84.30
2018-02-17T05:34:21.385Z,84.20
2018-02-17T05:36:51.395Z,84.60
2018-02-17T05:39:18.903Z,84.60
2018-02-17T05:41:52.082Z,85.00
2018-02-17T05:44:40.361Z,84.80
2018-02-17T05:47:10.251Z,85.30
2018-02-17T05:49:39.329Z,85.20
2018-02-17T05:52:06.903Z,85.20
2018-02-17T05:54:34.408Z,84.60
2018-02-17T05:57:01.927Z,84.80
2018-02-17T05:59:30.198Z,84.40
2018-02-17T06:01:58.461Z,84.80
2018-02-17T06:04:25.988Z,84.00
2018-02-17T06:06:53.478Z,84.60
2018-02-17T06:09:20.987Z,84.20
2018-02-17T06:11:48.474Z,83.90
2018-02-17T06:14:16.020Z,83.40
2018-02-17T06:16:43.517Z,84.10
2018-02-17T06:19:11.033Z,84.50
2018-02-17T06:21:38.529Z,83.90
2018-02-17T06:24:06.047Z,82.50
2018-02-17T06:26:33.550Z,83.20
2018-02-17T06:29:01.051Z,81.90
2018-02-17T06:31:28.559Z,82.50
2018-02-17T06:33:56.081Z,83.50
2018-02-17T06:36:23.613Z,83.30
2018-02-17T06:38:51.134Z,83.60
2018-02-17T06:41:18.659Z,83.70
2018-02-17T06:43:46.181Z,83.60
2018-02-17T06:46:14.431Z,84.00
2018-02-17T06:48:41.944Z,83.80
2018-02-17T06:51:09.446Z,84.10
2018-02-17T06:53:37.010Z,83.20
2018-02-17T06:56:04.524Z,83.60
2018-02-17T06:58:32.145Z,84.00
2018-02-17T07:01:00.434Z,83.70
2018-02-17T07:03:28.755Z,83.90
2018-02-17T07:05:56.296Z,83.90
2018-02-17T07:08:23.818Z,84.60
2018-02-17T07:10:51.366Z,83.60
2018-02-17T07:13:18.943Z,84.30
2018-02-17T07:15:47.234Z,84.50
2018-02-17T07:18:14.806Z,84.50
2018-02-17T07:20:42.368Z,83.90
2018-02-17T07:23:09.914Z,83.40
2018-02-17T07:25:37.469Z,84.00
2018-02-17T07:28:04.983Z,84.10
2018-02-17T07:30:32.520Z,83.40
2018-02-17T07:33:00.028Z,84.10
2018-02-17T07:35:28.344Z,84.80
2018-02-17T07:37:55.915Z,84.70
2018-02-17T07:40:23.457Z,84.50
2018-02-17T07:42:51.731Z,84.70
2018-02-17T07:45:19.259Z,84.60
2018-02-17T07:47:47.604Z,83.70
2018-02-17T07:50:15.147Z,83.70
2018-02-17T07:52:42.700Z,83.90
2018-02-17T07:55:10.232Z,84.40
2018-02-17T07:57:37.753Z,84.70
2018-02-17T08:00:05.312Z,85.20
2018-02-17T08:02:32.921Z,84.90
2018-02-17T08:05:01.212Z,84.10
2018-02-17T08:07:28.730Z,84.10
2018-02-17T08:09:57.022Z,84.90
2018-02-17T08:12:24.580Z,84.90
2018-02-17T08:14:52.106Z,84.30
2018-02-17T08:17:21.145Z,84.40
2018-02-17T08:19:48.679Z,84.20
2018-02-17T08:22:17.877Z,84.10
2018-02-17T08:24:46.149Z,84.80
2018-02-17T08:27:14.521Z,84.70
2018-02-17T08:29:42.809Z,83.80
2018-02-17T08:32:21.021Z,84.10
2018-02-17T08:34:49.320Z,84.00
2018-02-17T08:37:16.860Z,84.00
2018-02-17T08:39:45.200Z,83.60
2018-02-17T08:42:12.917Z,83.60
2018-02-17T08:44:40.527Z,83.90
2018-02-17T08:47:08.085Z,84.10
2018-02-17T08:49:35.642Z,84.10
2018-02-17T08:52:03.186Z,84.00
2018-02-17T08:54:30.731Z,82.90
2018-02-17T08:56:58.270Z,83.30
2018-02-17T08:59:25.838Z,84.40
2018-02-17T09:01:53.337Z,84.50
2018-02-17T09:04:20.841Z,84.30
2018-02-17T09:06:49.147Z,84.00
2018-02-17T09:09:16.668Z,83.90
2018-02-17T09:11:44.979Z,84.20
2018-02-17T09:14:12.506Z,84.20
2018-02-17T09:16:40.839Z,83.90
2018-02-17T09:19:08.387Z,83.80
2018-02-17T09:21:35.930Z,83.80
2018-02-17T09:24:03.436Z,84.10
2018-02-17T09:26:31.005Z,83.80
2018-02-17T09:28:58.533Z,83.30
2018-02-17T09:31:26.093Z,84.40
2018-02-17T09:33:53.614Z,84.40
2018-02-17T09:36:21.162Z,83.40
2018-02-17T09:38:49.463Z,83.60
2018-02-17T09:41:16.998Z,83.40
2018-02-17T09:43:45.292Z,83.50
2018-02-17T09:46:12.853Z,83.40
2018-02-17T09:48:40.393Z,84.20
2018-02-17T09:51:08.708Z,83.90
2018-02-17T09:53:36.262Z,83.80
2018-02-17T09:56:03.884Z,82.60
2018-02-17T09:58:32.169Z,84.00
2018-02-17T10:01:00.489Z,84.20
2018-02-17T10:03:28.042Z,84.20
2018-02-17T10:05:55.610Z,84.00
2018-02-17T10:08:23.155Z,84.20
2018-02-17T10:10:50.688Z,83.20
2018-02-17T10:13:18.244Z,83.20
2018-02-17T10:15:46.571Z,81.40
2018-02-17T10:18:14.149Z,81.40
2018-02-17T10:20:41.698Z,82.20
2018-02-17T10:23:09.267Z,82.00
2018-02-17T10:25:36.814Z,82.60
2018-02-17T10:28:04.630Z,83.10
2018-02-17T10:30:32.188Z,83.70
2018-02-17T10:33:00.512Z,83.60
2018-02-17T10:35:28.097Z,83.60
2018-02-17T10:37:56.583Z,83.00
2018-02-17T10:40:24.122Z,83.70
2018-02-17T10:42:52.750Z,83.40
2018-02-17T10:45:21.115Z,83.60
2018-02-17T10:47:48.691Z,83.40
2018-02-17T10:50:17.051Z,81.20
2018-02-17T10:52:44.602Z,81.10
2018-02-17T10:55:12.338Z,81.90
2018-02-17T10:57:39.878Z,81.10
2018-02-17T11:00:07.428Z,83.00
2018-02-17T11:02:34.987Z,83.60
2018-02-17T11:05:02.692Z,83.60
2018-02-17T11:07:30.278Z,83.60
2018-02-17T11:09:58.597Z,83.10
2018-02-17T11:12:26.131Z,83.00
2018-02-17T11:14:54.434Z,83.80
2018-02-17T11:17:21.957Z,83.60
2018-02-17T11:19:50.231Z,83.80
2018-02-17T11:22:18.631Z,83.70
2018-02-17T11:24:46.178Z,83.60
2018-02-17T11:27:14.541Z,82.90
2018-02-17T11:29:42.086Z,82.90
2018-02-17T11:32:09.599Z,82.70
2018-02-17T11:34:37.154Z,82.00
2018-02-17T11:37:04.699Z,81.50
2018-02-17T11:39:33.009Z,81.20
2018-02-17T11:42:00.522Z,81.20
2018-02-17T11:44:28.816Z,82.10
2018-02-17T11:46:57.092Z,81.50
2018-02-17T11:49:25.417Z,82.00
2018-02-17T11:51:53.000Z,82.00
2018-02-17T11:54:20.529Z,82.60
2018-02-17T11:56:48.074Z,82.10
2018-02-17T11:59:15.593Z,82.60
2018-02-17T12:01:43.897Z,82.60
2018-02-17T12:04:11.428Z,82.50
2018-02-17T12:06:39.719Z,81.50
2018-02-17T12:09:08.033Z,81.20
2018-02-17T12:11:35.559Z,81.20
2018-02-17T12:14:03.836Z,80.80
2018-02-17T12:16:32.117Z,81.80
2018-02-17T12:18:59.676Z,81.80
2018-02-17T12:21:27.241Z,81.60
2018-02-17T12:23:54.775Z,82.50
2018-02-17T12:26:23.074Z,82.70
2018-02-17T12:28:50.625Z,82.60
2018-02-17T12:31:19.748Z,81.90
2018-02-17T12:33:47.267Z,82.50
2018-02-17T12:36:15.639Z,80.50
2018-02-17T12:38:43.139Z,80.40
2018-02-17T12:41:10.645Z,81.60
2018-02-17T12:43:38.155Z,81.30
2018-02-17T12:46:05.658Z,82.20
2018-02-17T12:48:33.149Z,81.70
2018-02-17T12:51:01.405Z,82.40
2018-02-17T12:53:29.674Z,81.60
2018-02-17T12:55:57.221Z,81.50
2018-02-17T12:58:24.691Z,81.70
2018-02-17T13:00:53.064Z,82.00
2018-02-17T13:03:20.537Z,81.70
2018-02-17T13:05:48.025Z,81.60
2018-02-17T13:08:15.593Z,82.70
2018-02-17T13:10:43.077Z,82.20
2018-02-17T13:13:10.706Z,81.00
2018-02-17T13:15:38.199Z,81.90
2018-02-17T13:18:05.669Z,81.40
2018-02-17T13:20:33.134Z,81.90
2018-02-17T13:23:00.700Z,82.30
2018-02-17T13:25:28.152Z,81.80
2018-02-17T13:27:55.639Z,82.10
2018-02-17T13:30:23.897Z,81.70
2018-02-17T13:32:51.412Z,81.60
2018-02-17T13:35:20.529Z,80.70
2018-02-17T13:37:48.045Z,81.10
2018-02-17T13:40:15.569Z,81.80
2018-02-17T13:42:43.080Z,82.00
2018-02-17T13:45:10.601Z,81.40
2018-02-17T13:47:38.879Z,80.90
2018-02-17T13:50:07.184Z,81.60
2018-02-17T13:52:34.719Z,81.50
2018-02-17T13:55:03.011Z,81.50
2018-02-17T13:57:30.530Z,81.50
2018-02-17T13:59:58.047Z,81.30
2018-02-17T14:02:25.562Z,81.50
2018-02-17T14:04:53.130Z,80.70
2018-02-17T14:07:21.405Z,81.80
2018-02-17T14:09:49.712Z,82.50
2018-02-17T14:12:17.271Z,82.50
2018-02-17T14:14:44.794Z,82.60
2018-02-17T14:17:13.098Z,82.20
2018-02-17T14:19:40.636Z,82.10
2018-02-17T14:22:08.949Z,82.00
2018-02-17T14:24:36.444Z,82.00
2018-02-17T14:27:03.965Z,81.30
2018-02-17T14:29:31.509Z,81.80
2018-02-17T14:31:58.992Z,82.00
2018-02-17T14:34:26.523Z,80.90
2018-02-17T14:36:54.096Z,81.40
2018-02-17T14:39:21.684Z,81.30
2018-02-17T14:41:49.177Z,82.10
2018-02-17T14:44:17.506Z,81.30
2018-02-17T14:46:44.980Z,81.10
2018-02-17T14:49:12.509Z,80.50
2018-02-17T14:51:39.988Z,81.10
2018-02-17T14:54:07.526Z,81.00
2018-02-17T14:56:35.057Z,81.80
2018-02-17T14:59:03.363Z,82.40
2018-02-17T15:01:30.887Z,82.40
2018-02-17T15:03:59.174Z,81.50
2018-02-17T15:06:26.709Z,81.40
2018-02-17T15:08:54.238Z,81.60
2018-02-17T15:11:21.801Z,81.50
2018-02-17T15:13:49.298Z,81.70
2018-02-17T15:16:17.599Z,81.00
2018-02-17T15:18:45.102Z,81.00
2018-02-17T15:21:12.660Z,81.30
2018-02-17T15:23:40.201Z,81.80
2018-02-17T15:26:07.766Z,81.80
2018-02-17T15:28:35.269Z,81.60
2018-02-17T15:31:03.559Z,83.10
2018-02-17T15:33:31.846Z,82.50
2018-02-17T15:35:59.406Z,82.50
2018-02-17T15:38:26.899Z,82.00
2018-02-17T15:40:54.417Z,82.00
2018-02-17T15:43:21.943Z,82.30
2018-02-17T15:45:49.521Z,82.40
2018-02-17T15:48:17.831Z,82.60
2018-02-17T15:50:45.340Z,82.60
2018-02-17T15:53:12.852Z,83.00
2018-02-17T15:55:40.350Z,82.70
2018-02-17T15:58:07.876Z,82.90
2018-02-17T16:00:35.401Z,83.00
2018-02-17T16:03:03.669Z,83.40
2018-02-17T16:05:32.004Z,83.60
2018-02-17T16:07:59.513Z,83.60
2018-02-17T16:10:27.810Z,83.10
2018-02-17T16:12:55.308Z,83.00
2018-02-17T16:15:24.313Z,83.40
2018-02-17T16:17:51.835Z,83.80
2018-02-17T16:20:19.338Z,83.80
2018-02-17T16:22:46.842Z,83.40
2018-02-17T16:25:14.382Z,84.00
2018-02-17T16:27:42.633Z,84.10
2018-02-17T16:30:10.941Z,84.70
2018-02-17T16:32:38.452Z,83.90
2018-02-17T16:35:05.922Z,83.60
2018-02-17T16:37:33.401Z,83.60
2018-02-17T16:40:05.809Z,83.70
2018-02-17T16:42:33.262Z,83.50
2018-02-17T16:45:00.741Z,83.70
2018-02-17T16:47:28.253Z,84.20
2018-02-17T16:49:56.619Z,84.10
2018-02-17T16:52:24.868Z,84.10
2018-02-17T16:54:52.332Z,84.00
2018-02-17T16:57:19.812Z,84.10
2018-02-17T16:59:47.273Z,84.20
2018-02-17T17:02:15.549Z,84.20
2018-02-17T17:04:42.989Z,84.20
2018-02-17T17:07:10.453Z,84.10
2018-02-17T17:09:37.909Z,84.00
2018-02-17T17:12:05.385Z,84.20
2018-02-17T17:14:33.610Z,84.80
2018-02-17T17:17:01.088Z,84.70
2018-02-17T17:19:28.560Z,84.70
2018-02-17T17:21:56.032Z,85.20
2018-02-17T17:24:24.257Z,85.30
2018-02-17T17:26:51.715Z,85.20
2018-02-17T17:29:29.382Z,85.20
2018-02-17T17:31:57.074Z,85.20
2018-02-17T17:34:24.576Z,85.20
2018-02-17T17:36:53.035Z,85.20
2018-02-17T17:39:20.783Z,85.10
2018-02-17T17:41:48.266Z,85.10
2018-02-17T17:44:15.812Z,85.10
2018-02-17T17:46:43.376Z,85.40
2018-02-17T17:49:12.314Z,85.40
2018-02-17T17:51:39.823Z,85.40
2018-02-17T17:54:07.428Z,85.40
2018-02-17T17:56:34.917Z,85.40
2018-02-17T17:59:02.414Z,85.40
2018-02-17T18:01:29.920Z,85.40
2018-02-17T18:03:57.386Z,85.80
2018-02-17T18:06:24.886Z,85.20
2018-02-17T18:08:52.344Z,85.10
2018-02-17T18:11:19.804Z,84.90
2018-02-17T18:13:47.276Z,84.80
2018-02-17T18:16:15.503Z,84.80
2018-02-17T18:18:42.975Z,84.80
2018-02-17T18:21:10.530Z,84.50
2018-02-17T18:23:38.008Z,84.60
2018-02-17T18:26:05.472Z,84.30
2018-02-17T18:28:32.948Z,84.50
2018-02-17T18:31:01.185Z,84.30
2018-02-17T18:33:28.654Z,84.20
2018-02-17T18:35:56.113Z,84.10
2018-02-17T18:38:33.539Z,84.30
2018-02-17T18:41:01.005Z,84.10
2018-02-17T18:43:28.492Z,83.90
2018-02-17T18:45:55.964Z,83.90
2018-02-17T18:48:23.432Z,83.90
2018-02-17T18:50:50.886Z,84.00
2018-02-17T18:53:18.376Z,83.90
2018-02-17T18:55:46.601Z,84.30
2018-02-17T18:58:14.159Z,84.30
2018-02-17T19:00:41.630Z,83.40
2018-02-17T19:03:09.124Z,83.20
2018-02-17T19:05:37.348Z,83.70
2018-02-17T19:08:04.807Z,83.70
2018-02-17T19:10:32.259Z,84.00
2018-02-17T19:12:59.723Z,84.00
2018-02-17T19:15:27.200Z,84.10
2018-02-17T19:17:54.661Z,84.20
2018-02-17T19:20:22.115Z,84.20
2018-02-17T19:22:49.587Z,84.40
2018-02-17T19:25:17.043Z,84.00
2018-02-17T19:27:44.509Z,83.80
2018-02-17T19:30:12.732Z,84.00
2018-02-17T19:32:40.198Z,84.00
2018-02-17T19:35:08.442Z,83.40
2018-02-17T19:37:35.901Z,83.40
2018-02-17T19:40:03.374Z,83.60
2018-02-17T19:42:30.828Z,84.10
2018-02-17T19:44:58.296Z,84.20
2018-02-17T19:47:26.046Z,84.30
2018-02-17T19:49:53.648Z,84.30
2018-02-17T19:52:21.153Z,84.30
2018-02-17T19:54:49.372Z,84.30
2018-02-17T19:57:16.834Z,84.20
2018-02-17T19:59:44.303Z,84.20
2018-02-17T20:02:11.753Z,84.50
2018-02-17T20:04:39.215Z,84.60
2018-02-17T20:07:06.769Z,84.70
2018-02-17T20:09:34.261Z,84.80
2018-02-17T20:12:02.481Z,84.70
2018-02-17T20:14:29.954Z,84.70
2018-02-17T20:16:57.405Z,84.30
2018-02-17T20:19:24.889Z,84.30
2018-02-17T20:21:52.351Z,84.40
2018-02-17T20:24:19.820Z,84.30
2018-02-17T20:26:48.039Z,84.30
2018-02-17T20:29:15.513Z,84.20
2018-02-17T20:31:42.969Z,84.50
2018-02-17T20:34:10.437Z,84.30
2018-02-17T20:36:37.899Z,84.30
2018-02-17T20:39:05.360Z,83.90
2018-02-17T20:41:34.343Z,83.70
2018-02-17T20:44:01.852Z,84.10
2018-02-17T20:46:29.323Z,84.40
2018-02-17T20:48:56.788Z,84.50
2018-02-17T20:51:24.256Z,84.70
2018-02-17T20:53:51.721Z,84.10
2018-02-17T20:56:19.186Z,84.20
2018-02-17T20:58:46.659Z,83.90
2018-02-17T21:01:14.115Z,83.90
2018-02-17T21:03:41.573Z,84.30
2018-02-17T21:06:09.055Z,84.20
2018-02-17T21:08:37.296Z,84.30
2018-02-17T21:11:04.759Z,84.20
2018-02-17T21:13:32.223Z,84.10
2018-02-17T21:15:59.704Z,84.50
2018-02-17T21:18:27.936Z,85.30
2018-02-17T21:20:55.413Z,84.50
2018-02-17T21:23:22.875Z,84.60
2018-02-17T21:25:50.335Z,84.20
2018-02-17T21:28:17.797Z,84.30
2018-02-17T21:30:46.031Z,85.60
2018-02-17T21:33:13.508Z,85.00
2018-02-17T21:35:40.988Z,85.10
2018-02-17T21:38:08.444Z,84.70
2018-02-17T21:40:36.684Z,85.30
2018-02-17T21:43:04.142Z,84.70
2018-02-17T21:45:31.605Z,84.70
2018-02-17T21:47:59.069Z,84.10
2018-02-17T21:50:26.536Z,83.90
2018-02-17T21:52:54.042Z,84.40
2018-02-17T21:55:21.512Z,84.50
2018-02-17T21:57:48.974Z,84.00
2018-02-17T22:00:16.449Z,83.50
2018-02-17T22:02:43.903Z,83.80
2018-02-17T22:05:11.374Z,84.00
2018-02-17T22:07:38.832Z,83.80
2018-02-17T22:10:06.292Z,83.80
2018-02-17T22:12:33.784Z,84.80
2018-02-17T22:15:01.242Z,84.30
2018-02-17T22:17:29.470Z,84.60
2018-02-17T22:19:56.927Z,84.60
2018-02-17T22:22:24.446Z,84.00
2018-02-17T22:24:51.896Z,84.10
2018-02-17T22:27:19.370Z,84.10
2018-02-17T22:29:46.824Z,84.20
2018-02-17T22:32:14.287Z,84.40
2018-02-17T22:34:41.744Z,84.30
2018-02-17T22:37:09.208Z,84.50
2018-02-17T22:39:36.672Z,84.70
2018-02-17T22:42:04.142Z,84.90
2018-02-17T22:44:31.608Z,84.70
2018-02-17T22:46:59.084Z,84.60
2018-02-17T22:49:26.544Z,84.40
2018-02-17T22:51:54.005Z,85.10
2018-02-17T22:54:21.468Z,85.10
2018-02-17T22:56:49.713Z,85.00
2018-02-17T22:59:17.165Z,84.80
2018-02-17T23:01:44.629Z,84.70
2018-02-17T23:04:12.085Z,85.10
2018-02-17T23:06:40.325Z,84.50
2018-02-17T23:09:07.778Z,84.40
2018-02-17T23:11:35.248Z,84.90
2018-02-17T23:14:02.704Z,85.00
2018-02-17T23:16:30.165Z,85.20
2018-02-17T23:18:57.622Z,85.50
2018-02-17T23:21:25.083Z,85.90
2018-02-17T23:23:52.540Z,85.80
2018-02-17T23:26:20.011Z,85.70
2018-02-17T23:28:47.473Z,85.00
2018-02-17T23:31:14.933Z,84.60
2018-02-17T23:33:42.393Z,84.90
2018-02-17T23:36:09.849Z,85.50
2018-02-17T23:38:37.312Z,85.60
2018-02-17T23:41:04.781Z,85.40
2018-02-17T23:43:32.243Z,85.50
2018-02-17T23:45:59.691Z,85.30
2018-02-17T23:48:27.159Z,85.20
2018-02-17T23:50:54.617Z,85.40
2018-02-17T23:53:22.083Z,85.50
2018-02-17T23:55:50.320Z,85.20
2018-02-17T23:58:17.788Z,85.20
